Time;durP1;ratioP1;P1;durP2;ratioP2;P2;SDS_P1;SDS_P2;PMS_P1;PMS_P2;Temp;Humidity;BMP_temperature;BMP_pressure;BME280_temperature;BME280_humidity;BME280_pressure;Samples;Min_cycle;Max_cycle;Signal;HPM_P1;HPM_P2
2022/06/29 00:03:20;;;;;;;3.22;1.70;;;;;;;17.75;100.00;101891.72;10345789;28;20079;-66
2022/06/29 00:08:17;;;;;;;3.53;1.40;;;;;;;17.72;100.00;101884.09;10353718;28;20114;-68
2022/06/29 00:13:13;;;;;;;5.53;1.55;;;;;;;17.65;100.00;101883.84;10346158;28;20084;-68
2022/06/29 00:18:10;;;;;;;3.42;1.58;;;;;;;17.58;100.00;101889.09;10354548;28;20040;-67
2022/06/29 00:23:06;;;;;;;5.15;1.60;;;;;;;17.53;100.00;101878.25;10351999;28;20131;-68
2022/06/29 00:28:03;;;;;;;3.95;1.40;;;;;;;17.49;100.00;101880.06;10350403;28;20071;-68
2022/06/29 00:32:59;;;;;;;3.80;1.75;;;;;;;17.43;100.00;101877.50;10343578;28;20131;-68
2022/06/29 00:37:56;;;;;;;6.18;3.13;;;;;;;17.36;100.00;101877.25;10350783;28;20040;-67
2022/06/29 00:42:52;;;;;;;3.17;1.40;;;;;;;17.32;100.00;101881.81;10338553;28;20106;-68
2022/06/29 00:47:49;;;;;;;3.78;2.03;;;;;;;17.27;100.00;101884.78;10338721;28;20428;-68
2022/06/29 00:52:46;;;;;;;4.78;1.63;;;;;;;17.21;100.00;101875.84;10344341;28;20039;-69
2022/06/29 00:57:44;;;;;;;4.88;1.90;;;;;;;17.17;100.00;101874.94;10345708;28;20079;-69
2022/06/29 01:02:41;;;;;;;3.22;1.63;;;;;;;17.12;100.00;101854.94;10352592;28;20051;-68
2022/06/29 01:07:38;;;;;;;4.38;1.58;;;;;;;17.05;100.00;101849.94;10355629;28;20127;-68
2022/06/29 01:12:34;;;;;;;4.28;1.70;;;;;;;16.96;100.00;101857.47;10346609;28;20048;-68
2022/06/29 01:17:31;;;;;;;4.75;1.70;;;;;;;16.90;100.00;101848.59;10349728;28;20105;-68
2022/06/29 01:22:27;;;;;;;5.15;1.98;;;;;;;16.87;100.00;101838.19;10345884;28;20044;-69
2022/06/29 01:27:24;;;;;;;4.80;1.50;;;;;;;16.85;100.00;101842.44;10346986;28;20119;-68
2022/06/29 01:32:22;;;;;;;6.35;1.70;;;;;;;16.78;100.00;101837.41;10340770;28;20052;-69
2022/06/29 01:37:18;;;;;;;3.78;1.85;;;;;;;16.75;100.00;101835.31;10354763;28;20047;-68
2022/06/29 01:42:15;;;;;;;3.35;1.52;;;;;;;16.70;100.00;101839.06;10334062;28;20173;-67
2022/06/29 01:47:11;;;;;;;2.70;1.40;;;;;;;16.63;100.00;101828.53;10357043;28;20127;-68
2022/06/29 01:52:08;;;;;;;5.70;1.80;;;;;;;16.62;100.00;101832.44;10355308;28;20043;-67
2022/06/29 01:57:05;;;;;;;3.33;1.50;;;;;;;16.57;100.00;101829.03;10350854;28;20447;-68
2022/06/29 02:02:02;;;;;;;3.13;1.20;;;;;;;16.51;100.00;101831.19;10349308;28;20138;-68
2022/06/29 02:06:58;;;;;;;4.47;2.00;;;;;;;16.48;100.00;101818.06;10338636;28;20803;-68
2022/06/29 02:11:54;;;;;;;5.15;1.65;;;;;;;16.44;100.00;101819.06;10347007;28;20048;-67
2022/06/29 02:16:51;;;;;;;3.72;1.67;;;;;;;16.39;100.00;101822.81;10357806;28;20317;-62
2022/06/29 02:21:48;;;;;;;2.85;1.23;;;;;;;16.32;100.00;101806.75;10349774;28;20095;-63
2022/06/29 02:26:44;;;;;;;3.47;1.60;;;;;;;16.30;100.00;101811.00;10343745;28;20132;-65
2022/06/29 02:36:56;;;;;;;3.03;1.52;;;;;;;16.24;100.00;101804.81;10345818;28;20036;-65
2022/06/29 02:41:53;;;;;;;3.10;1.52;;;;;;;16.19;100.00;101792.00;10345981;28;20554;-64
2022/06/29 02:46:49;;;;;;;3.83;2.10;;;;;;;16.18;100.00;101795.13;10349030;28;20040;-66
2022/06/29 02:51:46;;;;;;;4.38;1.63;;;;;;;16.16;100.00;101787.16;10360478;28;20072;-66
2022/06/29 02:56:42;;;;;;;4.53;1.90;;;;;;;16.12;100.00;101786.19;10352849;28;20040;-66
2022/06/29 03:01:39;;;;;;;3.70;1.77;;;;;;;16.09;100.00;101791.59;10350358;28;20040;-67
2022/06/29 03:06:36;;;;;;;3.80;1.55;;;;;;;16.03;100.00;101782.66;10349435;28;20060;-67
2022/06/29 03:11:32;;;;;;;2.80;1.35;;;;;;;16.00;100.00;101777.81;10358371;28;20238;-66
2022/06/29 03:16:29;;;;;;;3.47;1.60;;;;;;;15.99;100.00;101776.19;10362143;28;20067;-65
2022/06/29 03:21:25;;;;;;;3.40;1.55;;;;;;;15.99;100.00;101781.72;10338907;28;20055;-65
2022/06/29 03:26:22;;;;;;;5.50;1.67;;;;;;;15.98;100.00;101775.38;10335209;28;20044;-64
2022/06/29 03:31:24;;;;;;;3.20;1.60;;;;;;;16.01;100.00;101779.41;10337471;28;20124;-63
2022/06/29 03:36:21;;;;;;;5.07;1.50;;;;;;;16.04;100.00;101778.78;10338333;28;20052;-67
2022/06/29 03:41:17;;;;;;;3.42;1.65;;;;;;;16.08;100.00;101779.75;10342030;28;20516;-68
2022/06/29 03:46:14;;;;;;;2.55;1.10;;;;;;;16.11;100.00;101776.31;10344032;28;20060;-67
2022/06/29 03:51:10;;;;;;;4.95;1.55;;;;;;;16.18;100.00;101768.34;10349096;28;20673;-67
2022/06/29 03:56:07;;;;;;;3.35;1.30;;;;;;;16.27;100.00;101770.22;10346789;28;20094;-66
2022/06/29 04:01:04;;;;;;;4.60;1.38;;;;;;;16.33;100.00;101774.44;10326530;28;20056;-67
2022/06/29 04:06:01;;;;;;;3.03;1.30;;;;;;;16.36;100.00;101768.25;10327297;28;20471;-68
2022/06/29 04:10:57;;;;;;;3.65;1.63;;;;;;;16.43;100.00;101768.56;10328616;28;20531;-64
2022/06/29 04:15:54;;;;;;;2.80;1.23;;;;;;;16.53;100.00;101767.38;10322166;28;20047;-64
2022/06/29 04:21:06;;;;;;;2.92;1.38;;;;;;;16.58;100.00;101754.19;10325149;28;20136;-64
2022/06/29 04:26:02;;;;;;;4.53;1.38;;;;;;;16.65;100.00;101759.19;10323151;28;20044;-64
2022/06/29 04:31:00;;;;;;;3.20;1.35;;;;;;;16.66;100.00;101757.22;10329910;28;20119;-65
2022/06/29 04:35:57;;;;;;;8.45;4.70;;;;;;;16.74;100.00;101761.91;10342338;28;20095;-65
2022/06/29 04:40:54;;;;;;;3.25;1.30;;;;;;;16.76;100.00;101765.13;10338714;28;20040;-65
2022/06/29 04:51:05;;;;;;;7.57;1.67;;;;;;;16.87;100.00;101765.56;10339635;28;20052;-64
2022/06/29 04:56:02;;;;;;;2.97;1.30;;;;;;;16.86;100.00;101758.44;10329627;28;20047;-65
2022/06/29 05:00:58;;;;;;;3.50;1.30;;;;;;;16.98;100.00;101762.06;10336583;28;20055;-65
2022/06/29 05:05:55;;;;;;;4.55;1.75;;;;;;;16.97;100.00;101759.66;10343856;28;20047;-64
2022/06/29 05:10:51;;;;;;;2.70;1.25;;;;;;;17.07;100.00;101769.50;10352317;28;20089;-66
2022/06/29 05:15:48;;;;;;;4.57;1.00;;;;;;;17.11;100.00;101760.19;10346041;28;20093;-64
2022/06/29 05:20:44;;;;;;;4.05;1.20;;;;;;;17.19;100.00;101755.75;10357436;28;20414;-64
2022/06/29 05:25:41;;;;;;;2.72;1.13;;;;;;;17.18;100.00;101759.66;10347973;28;20097;-64
2022/06/29 05:30:38;;;;;;;2.50;1.00;;;;;;;17.23;100.00;101754.72;10332092;28;20036;-64
2022/06/29 05:35:35;;;;;;;2.63;0.85;;;;;;;17.38;100.00;101752.47;10329014;27;20121;-64
2022/06/29 05:40:31;;;;;;;4.22;1.30;;;;;;;17.41;100.00;101752.63;10339681;28;20135;-64
2022/06/29 05:45:28;;;;;;;2.28;0.85;;;;;;;17.50;100.00;101757.25;10352787;28;20054;-63
2022/06/29 05:50:24;;;;;;;4.45;1.00;;;;;;;17.64;100.00;101757.78;10346517;28;20570;-63
2022/06/29 05:55:21;;;;;;;3.00;1.10;;;;;;;17.74;100.00;101753.78;10354184;28;21804;-64
2022/06/29 06:00:18;;;;;;;2.22;0.98;;;;;;;17.83;100.00;101758.09;10363220;28;20052;-64
2022/06/29 06:05:20;;;;;;;4.72;1.33;;;;;;;17.97;100.00;101752.25;10350597;28;20060;-64
2022/06/29 06:10:17;;;;;;;2.88;1.20;;;;;;;18.06;100.00;101749.38;10338742;28;20061;-67
2022/06/29 06:15:13;;;;;;;3.63;1.05;;;;;;;18.21;100.00;101748.69;10326060;28;20040;-67
2022/06/29 06:20:10;;;;;;;4.15;1.42;;;;;;;18.36;100.00;101751.94;10334711;28;20528;-68
2022/06/29 06:25:07;;;;;;;3.75;1.00;;;;;;;18.46;100.00;101745.94;10328915;28;20091;-67
2022/06/29 06:30:04;;;;;;;2.28;0.70;;;;;;;18.60;100.00;101740.84;10339833;27;20753;-68
2022/06/29 06:35:01;;;;;;;2.00;0.75;;;;;;;18.75;100.00;101744.06;10339478;28;20082;-67
2022/06/29 06:45:12;;;;;;;4.10;1.50;;;;;;;18.93;100.00;101742.66;10343115;28;20117;-68
2022/06/29 06:50:09;;;;;;;4.22;1.45;;;;;;;19.04;100.00;101727.16;10335946;28;20051;-67
2022/06/29 06:55:06;;;;;;;3.22;1.13;;;;;;;19.17;100.00;101729.88;10341281;28;20101;-67
2022/06/29 07:00:04;;;;;;;3.80;1.00;;;;;;;19.29;100.00;101727.88;10336515;28;20040;-68
2022/06/29 07:05:01;;;;;;;5.00;1.10;;;;;;;19.40;100.00;101722.66;10341054;28;20053;-68
2022/06/29 07:09:57;;;;;;;4.70;1.00;;;;;;;19.53;100.00;101726.16;10352515;28;20110;-68
2022/06/29 07:14:54;;;;;;;2.13;0.90;;;;;;;19.66;100.00;101715.81;10332571;28;20578;-69
2022/06/29 07:19:51;;;;;;;8.18;1.42;;;;;;;19.81;100.00;101706.72;10330025;28;20125;-68
2022/06/29 07:24:47;;;;;;;8.95;1.42;;;;;;;19.91;100.00;101703.44;10350578;28;20483;-68
2022/06/29 07:29:44;;;;;;;3.08;0.98;;;;;;;20.00;100.00;101705.19;10362534;28;20072;-68
2022/06/29 07:34:42;;;;;;;5.78;1.63;;;;;;;20.09;100.00;101697.50;10358519;28;20059;-69
2022/06/29 07:39:39;;;;;;;3.42;1.50;;;;;;;20.18;100.00;101695.34;10352752;28;20089;-68
2022/06/29 07:44:56;;;;;;;4.68;1.38;;;;;;;20.41;100.00;101700.25;10337153;28;20073;-68
2022/06/29 07:49:52;;;;;;;3.03;1.00;;;;;;;20.55;100.00;101692.22;10352454;28;20070;-69
2022/06/29 07:54:49;;;;;;;3.25;1.05;;;;;;;20.71;100.00;101689.44;10353252;28;20045;-69
2022/06/29 07:59:48;;;;;;;2.88;1.10;;;;;;;20.91;100.00;101687.47;10359299;27;20594;-69
2022/06/29 08:04:45;;;;;;;3.28;1.05;;;;;;;21.02;100.00;101683.72;10328241;28;20063;-70
2022/06/29 08:10:03;;;;;;;4.63;1.05;;;;;;;21.17;100.00;101684.03;10334612;28;20041;-69
2022/06/29 08:15:01;;;;;;;3.30;1.00;;;;;;;21.41;100.00;101688.50;10338505;28;20043;-69
2022/06/29 08:19:58;;;;;;;3.10;1.10;;;;;;;21.57;100.00;101680.84;10333024;28;20055;-68
2022/06/29 08:24:54;;;;;;;4.40;1.42;;;;;;;21.69;100.00;101679.06;10341995;28;20470;-68
2022/06/29 08:29:51;;;;;;;3.22;1.05;;;;;;;21.81;100.00;101679.66;10330269;28;20140;-69
2022/06/29 08:34:48;;;;;;;4.78;1.17;;;;;;;21.93;100.00;101673.13;10344363;28;20100;-69
2022/06/29 08:39:45;;;;;;;2.53;1.10;;;;;;;22.05;100.00;101672.91;10341283;28;20105;-69
2022/06/29 08:44:42;;;;;;;2.63;1.13;;;;;;;22.15;100.00;101670.69;10336524;27;20036;-69
2022/06/29 08:49:39;;;;;;;4.03;1.10;;;;;;;22.25;100.00;101665.28;10331632;28;20048;-69
2022/06/29 08:54:39;;;;;;;4.40;1.33;;;;;;;22.41;100.00;101672.69;10332861;28;20388;-69
2022/06/29 08:59:36;;;;;;;4.15;1.30;;;;;;;22.57;100.00;101669.72;10330462;28;20097;-68
2022/06/29 09:04:54;;;;;;;2.15;1.10;;;;;;;22.70;100.00;101673.91;10330776;28;20150;-69
2022/06/29 09:10:00;;;;;;;2.63;1.00;;;;;;;22.82;100.00;101676.44;10351591;28;20722;-69
2022/06/29 09:14:57;;;;;;;4.40;1.25;;;;;;;22.96;100.00;101661.88;10347954;28;20044;-68
2022/06/29 09:19:53;;;;;;;2.70;1.23;;;;;;;23.06;100.00;101657.63;10356183;28;20056;-69
2022/06/29 09:25:28;;;;;;;2.13;1.25;;;;;;;23.14;100.00;101658.50;10352164;28;20573;-69
2022/06/29 09:30:30;;;;;;;5.45;1.77;;;;;;;23.29;100.00;101652.69;10346399;28;20131;-69
2022/06/29 09:35:27;;;;;;;3.03;1.30;;;;;;;23.61;100.00;101643.03;10340996;28;20052;-69
2022/06/29 09:40:24;;;;;;;3.78;1.35;;;;;;;23.80;100.00;101639.25;10335360;28;20523;-69
2022/06/29 09:45:20;;;;;;;3.03;1.50;;;;;;;24.12;100.00;101629.09;10336619;28;20109;-69
2022/06/29 09:50:17;;;;;;;3.15;1.30;;;;;;;24.32;99.93;101626.00;10328503;28;20131;-70
2022/06/29 09:55:14;;;;;;;6.07;1.30;;;;;;;24.45;96.13;101627.28;10341592;28;20044;-69
2022/06/29 10:05:54;;;;;;;4.93;1.80;;;;;;;24.53;96.15;101626.19;10333823;28;20056;-67
2022/06/29 10:10:50;;;;;;;3.38;1.10;;;;;;;24.71;93.62;101619.84;10336092;28;20050;-67
2022/06/29 10:16:07;;;;;;;3.67;1.30;;;;;;;25.31;89.66;101619.22;10349722;28;20089;-67
2022/06/29 10:21:38;;;;;;;3.35;1.00;;;;;;;26.55;82.22;101616.75;10351843;27;20043;-67
2022/06/29 10:26:35;;;;;;;2.30;1.25;;;;;;;26.99;74.35;101615.34;10347670;28;20101;-67
2022/06/29 10:31:50;;;;;;;3.80;1.38;;;;;;;27.10;76.31;101611.66;10339904;28;20072;-67
2022/06/29 10:37:02;;;;;;;3.05;1.33;;;;;;;27.11;68.97;101607.63;10334067;28;20138;-67
2022/06/29 10:47:23;;;;;;;3.38;1.13;;;;;;;29.40;63.29;101588.28;10324667;28;20094;-67
2022/06/29 10:52:19;;;;;;;3.15;1.00;;;;;;;30.97;60.80;101586.47;10340845;28;20087;-68
2022/06/29 10:57:20;;;;;;;3.07;1.00;;;;;;;31.14;49.88;101582.44;10335411;28;20056;-68
2022/06/29 11:02:17;;;;;;;3.72;1.20;;;;;;;29.43;52.63;101580.97;10347999;28;20061;-67
2022/06/29 11:12:28;;;;;;;3.05;1.05;;;;;;;30.54;52.01;101567.66;10353013;27;20052;-68
2022/06/29 11:17:40;;;;;;;2.60;1.15;;;;;;;30.51;49.19;101565.69;10341812;28;20049;-68
2022/06/29 11:22:48;;;;;;;3.03;1.45;;;;;;;29.95;49.07;101567.19;10349835;28;20094;-67
2022/06/29 11:27:45;;;;;;;4.85;1.08;;;;;;;28.61;49.14;101561.25;10347802;28;20127;-68
2022/06/29 11:32:43;;;;;;;2.50;0.93;;;;;;;29.32;51.81;101558.66;10342993;28;20047;-68
2022/06/29 11:37:51;;;;;;;2.97;1.20;;;;;;;28.89;49.89;101542.38;10359435;28;20075;-68
2022/06/29 11:43:06;;;;;;;2.05;0.77;;;;;;;29.73;53.06;101552.72;10360603;28;20063;-68
2022/06/29 11:48:14;;;;;;;2.20;0.93;;;;;;;30.21;45.25;101550.56;10348218;28;20048;-68
2022/06/29 11:53:10;;;;;;;1.75;0.70;;;;;;;29.31;45.59;101542.94;10334980;28;20041;-67
2022/06/29 11:58:13;;;;;;;2.65;0.90;;;;;;;28.89;45.49;101536.75;10322404;28;20507;-67
2022/06/29 12:03:14;;;;;;;4.00;1.48;;;;;;;28.73;43.58;101532.56;10327938;28;20040;-68
2022/06/29 12:08:11;;;;;;;3.63;1.15;;;;;;;28.54;45.54;101522.78;10335140;28;20044;-68
2022/06/29 12:13:07;;;;;;;3.60;0.70;;;;;;;28.77;44.65;101512.03;10335575;28;20049;-67
2022/06/29 12:18:05;;;;;;;3.10;1.02;;;;;;;30.05;40.93;101496.94;10335937;28;20416;-67
2022/06/29 12:23:02;;;;;;;2.67;1.00;;;;;;;30.49;37.34;101503.28;10340629;27;20078;-68
2022/06/29 12:28:04;;;;;;;3.78;1.10;;;;;;;31.39;39.04;101497.06;10354920;28;20454;-68
2022/06/29 12:33:02;;;;;;;3.53;1.17;;;;;;;31.84;37.09;101492.63;10352686;28;20471;-67
2022/06/29 12:37:59;;;;;;;2.03;0.88;;;;;;;31.58;37.92;101498.19;10350078;28;20055;-68
2022/06/29 12:42:56;;;;;;;5.30;0.98;;;;;;;30.18;40.96;101489.41;10353930;28;20101;-68
2022/06/29 12:47:53;;;;;;;3.38;1.00;;;;;;;29.30;44.31;101487.88;10348857;28;20044;-67
2022/06/29 12:52:51;;;;;;;2.53;1.00;;;;;;;28.37;41.40;101489.25;10356703;28;20051;-67
2022/06/29 12:57:48;;;;;;;1.75;0.95;;;;;;;28.19;46.83;101479.03;10355714;28;20100;-67
2022/06/29 13:02:44;;;;;;;2.50;1.00;;;;;;;28.04;47.31;101472.00;10339112;28;20055;-67
2022/06/29 13:07:41;;;;;;;3.72;1.17;;;;;;;28.07;42.98;101476.78;10340498;28;20066;-66
2022/06/29 13:12:40;;;;;;;4.13;1.17;;;;;;;28.57;48.45;101456.47;10330405;28;20086;-67
2022/06/29 13:17:36;;;;;;;1.95;0.90;;;;;;;28.91;55.07;101455.50;10321932;28;20074;-68
2022/06/29 13:22:33;;;;;;;3.63;1.10;;;;;;;28.90;47.78;101448.31;10329991;28;20048;-68
2022/06/29 13:27:30;;;;;;;2.05;0.80;;;;;;;28.62;58.36;101433.47;10326416;28;20109;-68
2022/06/29 13:32:27;;;;;;;2.67;1.10;;;;;;;28.24;44.61;101442.00;10325078;28;20052;-68
2022/06/29 13:37:24;;;;;;;4.43;1.48;;;;;;;28.10;52.35;101436.59;10309219;28;20098;-67
2022/06/29 13:42:20;;;;;;;3.92;1.10;;;;;;;28.26;51.91;101428.31;10318670;28;20052;-68
2022/06/29 13:47:17;;;;;;;3.63;0.88;;;;;;;28.48;60.03;101428.06;10312832;28;20080;-67
2022/06/29 13:52:14;;;;;;;3.35;0.90;;;;;;;28.38;52.42;101423.34;10311951;28;20177;-67
2022/06/29 13:57:10;;;;;;;3.00;1.00;;;;;;;28.09;48.35;101418.94;10310679;28;20106;-67
2022/06/29 14:02:07;;;;;;;2.83;0.70;;;;;;;27.94;44.81;101422.34;10316390;28;20072;-67
2022/06/29 14:07:04;;;;;;;2.63;0.95;;;;;;;27.82;48.97;101416.03;10346949;28;20048;-68
2022/06/29 14:12:20;;;;;;;2.08;0.80;;;;;;;28.17;44.27;101408.38;10354459;28;20068;-67
2022/06/29 14:17:17;;;;;;;1.65;0.90;;;;;;;28.45;48.54;101412.00;10359258;28;20048;-67
2022/06/29 14:22:13;;;;;;;2.58;0.70;;;;;;;28.66;45.84;101406.06;10347343;27;20044;-67
2022/06/29 14:27:10;;;;;;;4.47;1.10;;;;;;;28.77;43.76;101421.97;10334632;28;20040;-67
2022/06/29 14:32:08;;;;;;;3.25;0.55;;;;;;;29.62;40.91;101413.22;10334437;28;20129;-67
2022/06/29 14:37:22;;;;;;;1.90;0.70;;;;;;;30.16;38.80;101413.69;10327692;28;20075;-67
2022/06/29 14:42:19;;;;;;;3.10;0.90;;;;;;;29.97;38.45;101406.88;10333031;28;20044;-67
2022/06/29 14:47:16;;;;;;;1.98;0.68;;;;;;;29.54;39.00;101406.94;10329431;28;20509;-67
2022/06/29 14:52:12;;;;;;;2.45;0.90;;;;;;;29.25;39.71;101406.69;10338913;28;20489;-67
2022/06/29 14:57:09;;;;;;;3.30;0.80;;;;;;;28.87;45.74;101404.09;10330577;28;20132;-67
2022/06/29 15:02:08;;;;;;;2.42;0.70;;;;;;;28.53;40.11;101394.63;10338591;28;20381;-67
2022/06/29 15:07:06;;;;;;;2.85;1.08;;;;;;;28.19;39.48;101400.31;10339548;28;20052;-67
2022/06/29 15:12:03;;;;;;;1.50;0.70;;;;;;;28.13;43.44;101396.41;10338656;28;20079;-67
2022/06/29 15:17:07;;;;;;;4.32;1.00;;;;;;;27.91;43.64;101385.44;10338292;28;20621;-67
2022/06/29 15:22:09;;;;;;;2.38;0.73;;;;;;;27.99;42.45;101374.91;10321704;28;20052;-67
2022/06/29 15:27:13;;;;;;;4.80;0.80;;;;;;;28.11;44.64;101367.91;10313401;28;20103;-67
2022/06/29 15:32:13;;;;;;;3.33;1.02;;;;;;;28.10;41.04;101353.03;10300148;28;20048;-67
2022/06/29 15:42:31;;;;;;;2.45;0.80;;;;;;;28.01;44.08;101344.38;10328269;28;20600;-67
2022/06/29 15:47:43;;;;;;;2.80;1.10;;;;;;;27.88;46.82;101346.94;10319420;28;20072;-67
2022/06/29 15:52:48;;;;;;;2.03;0.73;;;;;;;27.83;52.15;101339.00;10339636;27;20063;-67
2022/06/29 15:57:49;;;;;;;3.05;1.02;;;;;;;28.06;45.37;101345.91;10335634;28;20055;-69
2022/06/29 16:02:46;;;;;;;1.92;0.90;;;;;;;28.91;40.11;101342.94;10334004;28;20049;-69
2022/06/29 16:07:43;;;;;;;2.05;0.90;;;;;;;30.24;38.20;101343.84;10326303;28;20134;-70
2022/06/29 16:12:40;;;;;;;2.33;0.82;;;;;;;31.31;38.96;101337.47;10337111;28;20139;-68
2022/06/29 16:17:36;;;;;;;1.88;0.80;;;;;;;31.87;34.91;101330.59;10340602;28;20044;-69
2022/06/29 16:22:36;;;;;;;2.80;0.85;;;;;;;32.35;34.29;101323.00;10328577;27;20052;-69
2022/06/29 16:27:32;;;;;;;3.28;1.08;;;;;;;33.04;34.69;101327.13;10321132;28;20306;-70
2022/06/29 16:32:29;;;;;;;5.70;0.80;;;;;;;33.62;33.60;101314.50;10336413;28;20595;-69
2022/06/29 16:37:26;;;;;;;6.70;2.13;;;;;;;33.49;35.38;101311.72;10325473;27;20060;-69
2022/06/29 16:42:22;;;;;;;2.47;0.93;;;;;;;33.06;32.01;101299.19;10337963;28;20044;-69
2022/06/29 16:47:19;;;;;;;29.55;18.60;;;;;;;32.47;33.97;101308.06;10322246;28;20044;-68
2022/06/29 16:52:16;;;;;;;4.25;1.63;;;;;;;32.08;35.25;101301.66;10330122;28;20100;-68
2022/06/29 16:57:13;;;;;;;2.05;0.75;;;;;;;32.48;38.31;101303.97;10327830;28;20044;-67
2022/06/29 17:02:09;;;;;;;3.85;1.25;;;;;;;32.84;37.27;101307.59;10323001;28;20561;-67
2022/06/29 17:07:06;;;;;;;5.70;1.33;;;;;;;32.96;39.45;101297.50;10330803;28;20049;-67
2022/06/29 17:12:04;;;;;;;2.28;0.88;;;;;;;32.84;47.29;101291.44;10344706;28;20101;-67
2022/06/29 17:17:00;;;;;;;3.55;0.98;;;;;;;32.20;38.09;101293.63;10332647;28;20093;-67
2022/06/29 17:21:57;;;;;;;2.83;1.10;;;;;;;31.59;38.29;101293.47;10329604;28;20044;-67
2022/06/29 17:26:55;;;;;;;4.40;1.40;;;;;;;31.07;48.12;101297.38;10327570;28;20079;-67
2022/06/29 17:31:51;;;;;;;4.47;1.30;;;;;;;30.54;47.62;101296.75;10334038;28;20146;-67
2022/06/29 17:36:48;;;;;;;4.70;1.05;;;;;;;30.71;46.26;101301.16;10327345;28;20040;-68
2022/06/29 17:41:45;;;;;;;2.60;1.08;;;;;;;31.30;40.54;101289.88;10330972;28;20515;-68
2022/06/29 17:46:41;;;;;;;5.78;1.52;;;;;;;31.75;50.42;101286.13;10323960;28;20683;-68
2022/06/29 17:51:38;;;;;;;13.38;4.38;;;;;;;32.40;43.59;101290.50;10318664;28;20423;-68
2022/06/29 17:56:34;;;;;;;5.28;3.30;;;;;;;32.07;46.26;101285.94;10318973;28;20142;-67
2022/06/29 18:01:31;;;;;;;3.67;1.23;;;;;;;31.61;41.69;101287.34;10322179;28;20082;-67
2022/06/29 18:06:27;;;;;;;3.13;1.33;;;;;;;30.87;47.18;101291.09;10334280;28;20048;-66
2022/06/29 18:11:24;;;;;;;3.13;1.10;;;;;;;29.87;52.05;101292.34;10326927;28;20526;-67
2022/06/29 18:16:30;;;;;;;4.03;1.35;;;;;;;28.99;44.03;101288.09;10341100;28;20603;-67
2022/06/29 18:21:26;;;;;;;3.22;1.35;;;;;;;28.56;48.58;101294.50;10341748;27;20060;-67
2022/06/29 18:26:23;;;;;;;2.88;1.10;;;;;;;28.14;76.96;101299.59;10343754;28;20079;-67
2022/06/29 18:31:19;;;;;;;3.38;1.20;;;;;;;27.77;67.85;101295.69;10326278;28;20530;-67
2022/06/29 18:36:16;;;;;;;4.35;1.33;;;;;;;27.36;69.02;101305.03;10326663;28;20044;-68
2022/06/29 18:41:13;;;;;;;3.08;1.08;;;;;;;27.06;70.19;101315.00;10321580;28;20099;-70
2022/06/29 18:46:09;;;;;;;5.18;1.20;;;;;;;26.87;75.40;101315.59;10329262;28;20044;-70
2022/06/29 18:51:06;;;;;;;2.97;1.10;;;;;;;26.60;68.46;101318.25;10329724;28;20048;-71
2022/06/29 18:56:03;;;;;;;2.65;1.10;;;;;;;26.22;71.44;101324.53;10332257;28;20070;-72
2022/06/29 19:01:01;;;;;;;2.85;1.10;;;;;;;26.16;84.79;101331.78;10344254;28;20091;-72
2022/06/29 19:05:57;;;;;;;3.47;1.00;;;;;;;26.02;97.34;101337.47;10334162;28;20071;-71
2022/06/29 19:10:54;;;;;;;2.97;0.93;;;;;;;25.84;88.34;101343.16;10355548;28;20662;-72
2022/06/29 19:15:50;;;;;;;3.20;1.02;;;;;;;25.67;95.20;101353.22;10347535;28;20076;-71
2022/06/29 19:20:48;;;;;;;4.80;1.48;;;;;;;25.48;88.18;101348.09;10332032;28;20584;-70
2022/06/29 19:25:46;;;;;;;4.57;1.60;;;;;;;25.27;95.25;101355.34;10327512;28;20561;-71
2022/06/29 19:30:44;;;;;;;3.78;1.10;;;;;;;25.17;100.00;101368.13;10335410;28;20044;-70
2022/06/29 19:35:41;;;;;;;3.30;1.20;;;;;;;25.03;99.17;101378.56;10329852;28;20082;-71
2022/06/29 19:40:38;;;;;;;5.22;2.30;;;;;;;24.84;94.87;101377.00;10323018;28;20089;-71
2022/06/29 19:45:35;;;;;;;3.22;1.20;;;;;;;24.72;87.93;101381.00;10339393;28;20044;-68
2022/06/29 19:50:31;;;;;;;4.40;1.20;;;;;;;24.48;85.29;101383.34;10346022;28;20044;-69
2022/06/29 19:55:31;;;;;;;4.00;1.83;;;;;;;24.47;97.75;101398.53;10335685;28;20139;-70
2022/06/29 20:00:48;;;;;;;6.30;1.20;;;;;;;24.34;100.00;101400.06;10349359;28;20058;-70
2022/06/29 20:05:45;;;;;;;4.63;1.10;;;;;;;24.20;89.79;101405.63;10326373;28;20776;-69
2022/06/29 20:10:42;;;;;;;3.28;1.25;;;;;;;24.08;99.22;101404.78;10341318;28;20127;-69
2022/06/29 20:15:59;;;;;;;3.47;1.20;;;;;;;23.94;87.84;101399.16;10336078;28;20052;-69
2022/06/29 20:20:56;;;;;;;3.63;1.38;;;;;;;23.81;99.52;101406.28;10331942;28;20063;-67
2022/06/29 20:25:53;;;;;;;5.30;1.10;;;;;;;23.73;100.00;101400.63;10342971;28;20040;-66
2022/06/29 20:30:49;;;;;;;3.28;1.30;;;;;;;23.56;99.14;101404.16;10324033;28;20044;-66
2022/06/29 20:35:46;;;;;;;3.58;1.50;;;;;;;23.48;96.91;101394.13;10331128;28;20040;-67
2022/06/29 20:40:42;;;;;;;2.70;1.20;;;;;;;23.29;95.47;101404.38;10361346;28;20060;-68
2022/06/29 20:45:39;;;;;;;4.80;1.17;;;;;;;23.20;92.66;101415.06;10328748;28;20108;-68
2022/06/29 20:50:35;;;;;;;7.15;1.50;;;;;;;23.08;98.17;101420.97;10351981;28;20078;-68
2022/06/29 20:55:32;;;;;;;2.35;1.08;;;;;;;23.04;97.92;101414.56;10330262;28;20580;-67
2022/06/29 21:00:29;;;;;;;4.38;1.58;;;;;;;22.95;99.16;101416.84;10331194;28;20059;-69
2022/06/29 21:05:26;;;;;;;3.30;1.20;;;;;;;22.86;98.37;101420.78;10318854;28;20094;-68
2022/06/29 21:10:22;;;;;;;4.38;1.30;;;;;;;22.74;94.57;101412.69;10323771;28;20045;-67
2022/06/29 21:15:21;;;;;;;4.38;1.08;;;;;;;22.65;93.91;101420.56;10356184;28;20047;-67
2022/06/29 21:20:17;;;;;;;3.10;1.17;;;;;;;22.47;95.24;101420.41;10349762;28;20043;-68
2022/06/29 21:25:14;;;;;;;5.22;1.40;;;;;;;22.43;100.00;101420.34;10337594;28;20078;-68
2022/06/29 21:30:10;;;;;;;2.78;1.15;;;;;;;22.37;100.00;101416.34;10352584;28;20567;-68
2022/06/29 21:35:07;;;;;;;4.05;1.35;;;;;;;22.31;100.00;101423.44;10345994;27;20678;-65
2022/06/29 21:40:04;;;;;;;4.85;1.35;;;;;;;22.23;99.54;101427.28;10346989;27;20044;-66
2022/06/29 21:45:01;;;;;;;4.03;1.23;;;;;;;22.13;100.00;101417.63;10357590;28;20104;-66
2022/06/29 21:55:12;;;;;;;3.38;1.45;;;;;;;21.98;100.00;101419.44;10343082;28;20044;-65
2022/06/29 22:00:11;;;;;;;3.83;1.30;;;;;;;21.89;100.00;101418.94;10349446;28;20101;-66
2022/06/29 22:05:08;;;;;;;3.83;1.58;;;;;;;21.73;100.00;101409.97;10351002;28;20044;-66
2022/06/29 22:10:06;;;;;;;5.72;1.20;;;;;;;21.68;100.00;101401.97;10347653;28;20048;-66
2022/06/29 22:15:04;;;;;;;5.85;1.45;;;;;;;21.59;100.00;101403.03;10348659;28;20047;-67
2022/06/29 22:20:01;;;;;;;5.63;1.50;;;;;;;21.49;100.00;101395.34;10352378;28;20056;-66
2022/06/29 22:24:58;;;;;;;9.27;1.50;;;;;;;21.42;100.00;101389.66;10340198;28;20106;-68
2022/06/29 22:29:54;;;;;;;3.75;1.38;;;;;;;21.32;100.00;101379.16;10352415;28;20643;-68
2022/06/29 22:34:51;;;;;;;4.78;1.45;;;;;;;21.26;100.00;101386.22;10355380;28;20130;-68
2022/06/29 22:39:47;;;;;;;4.40;1.42;;;;;;;21.17;100.00;101381.75;10359834;27;20094;-72
2022/06/29 22:44:44;;;;;;;6.28;1.95;;;;;;;21.10;100.00;101384.41;10355631;28;20093;-72
2022/06/29 22:49:40;;;;;;;4.75;1.58;;;;;;;21.06;100.00;101389.13;10353373;28;20048;-70
2022/06/29 22:54:37;;;;;;;3.80;1.45;;;;;;;20.99;100.00;101380.66;10347822;28;20036;-70
2022/06/29 22:59:33;;;;;;;3.92;1.50;;;;;;;20.90;100.00;101385.69;10351086;28;20105;-69
2022/06/29 23:04:30;;;;;;;6.80;1.50;;;;;;;20.81;100.00;101381.16;10339389;28;20121;-69
2022/06/29 23:09:26;;;;;;;3.90;1.83;;;;;;;20.71;100.00;101384.59;10352131;28;20074;-69
2022/06/29 23:14:23;;;;;;;4.22;1.65;;;;;;;20.65;100.00;101386.06;10359393;28;20150;-70
2022/06/29 23:19:19;;;;;;;3.25;1.48;;;;;;;20.57;100.00;101390.69;10362865;28;20040;-68
2022/06/29 23:24:16;;;;;;;12.60;2.08;;;;;;;20.49;100.00;101394.50;10343389;28;20064;-69